createdAt,value
2022-09-22T00:03:02.423Z,6.00
2022-09-22T00:08:06.678Z,9.23
2022-09-22T00:13:09.568Z,6.07
2022-09-22T00:18:12.500Z,5.80
2022-09-22T00:23:16.814Z,7.70
2022-09-22T00:28:19.931Z,5.40
2022-09-22T00:33:22.845Z,6.70
2022-09-22T00:38:27.142Z,4.50
2022-09-22T00:43:32.482Z,6.20
2022-09-22T00:48:39.535Z,4.50
2022-09-22T00:53:46.201Z,5.53
2022-09-22T00:58:52.896Z,4.50
2022-09-22T01:03:57.438Z,7.30
2022-09-22T01:09:03.054Z,4.33
2022-09-22T01:14:15.000Z,5.30
2022-09-22T01:19:47.151Z,10.17
2022-09-22T01:25:09.157Z,6.20
2022-09-22T01:30:25.596Z,5.30
2022-09-22T01:35:33.848Z,6.03
2022-09-22T01:40:43.941Z,4.70
2022-09-22T01:45:49.545Z,5.67
2022-09-22T01:50:56.166Z,9.17
2022-09-22T01:56:05.861Z,6.13
2022-09-22T02:01:14.967Z,4.40
2022-09-22T02:06:22.743Z,3.73
2022-09-22T02:11:25.960Z,5.13
2022-09-22T02:16:31.054Z,4.30
2022-09-22T02:21:33.996Z,4.07
2022-09-22T02:26:37.901Z,3.80
2022-09-22T02:31:42.344Z,5.50
2022-09-22T02:36:55.990Z,9.30
2022-09-22T02:42:12.581Z,5.53
2022-09-22T02:47:23.542Z,5.90
2022-09-22T02:52:26.747Z,5.53
2022-09-22T02:57:29.651Z,7.00
2022-09-22T03:02:33.903Z,5.50
2022-09-22T03:07:37.106Z,7.17
2022-09-22T03:13:02.394Z,8.00
2022-09-22T03:18:06.973Z,6.60
2022-09-22T03:23:10.366Z,5.60
2022-09-22T03:28:13.233Z,8.13
2022-09-22T03:33:17.630Z,8.80
2022-09-22T03:38:20.551Z,9.70
2022-09-22T03:43:23.529Z,7.53
2022-09-22T03:48:29.066Z,7.87
2022-09-22T03:53:31.956Z,6.77
2022-09-22T03:58:35.389Z,7.43
2022-09-22T04:03:41.019Z,10.63
2022-09-22T04:08:44.015Z,6.27
2022-09-22T04:13:46.952Z,9.10
2022-09-22T04:18:51.249Z,6.53
2022-09-22T04:23:54.132Z,6.50
2022-09-22T04:28:57.037Z,7.63
2022-09-22T04:34:04.260Z,7.33
2022-09-22T04:39:10.424Z,7.17
2022-09-22T04:44:13.292Z,8.07
2022-09-22T04:49:17.609Z,12.83
2022-09-22T04:54:20.488Z,9.10
2022-09-22T04:59:23.514Z,9.07
2022-09-22T05:04:27.907Z,10.93
2022-09-22T05:09:30.949Z,13.80
2022-09-22T05:14:34.674Z,10.10
2022-09-22T05:19:38.945Z,10.47
2022-09-22T05:24:42.573Z,13.57
2022-09-22T05:29:45.466Z,14.20
2022-09-22T05:34:49.720Z,12.50
2022-09-22T05:39:52.603Z,14.90
2022-09-22T05:44:55.485Z,12.67
2022-09-22T05:49:59.740Z,9.87
2022-09-22T05:55:02.645Z,11.73
2022-09-22T06:00:08.624Z,15.90
2022-09-22T06:05:19.643Z,10.80
2022-09-22T06:10:22.635Z,13.40
2022-09-22T06:15:26.008Z,12.27
2022-09-22T06:20:30.340Z,13.10
2022-09-22T06:25:33.305Z,18.90
2022-09-22T06:30:38.165Z,12.43
2022-09-22T06:35:45.356Z,16.40
2022-09-22T06:40:48.908Z,14.53
2022-09-22T06:45:52.638Z,13.00
2022-09-22T06:50:56.977Z,16.83
2022-09-22T06:56:00.363Z,11.67
2022-09-22T07:01:09.878Z,15.67
2022-09-22T07:06:20.433Z,9.50
2022-09-22T07:11:23.697Z,12.53
2022-09-22T07:16:28.180Z,13.80
2022-09-22T07:21:35.300Z,12.07
2022-09-22T07:26:39.988Z,12.17
2022-09-22T07:31:43.348Z,8.80
2022-09-22T07:36:49.072Z,10.07
2022-09-22T07:41:52.322Z,13.20
2022-09-22T07:46:55.583Z,10.70
2022-09-22T07:51:59.979Z,9.13
2022-09-22T07:57:08.741Z,11.17
2022-09-22T08:02:11.939Z,8.43
2022-09-22T08:07:16.439Z,8.60
2022-09-22T08:12:19.380Z,9.43
2022-09-22T08:17:22.357Z,9.83
2022-09-22T08:22:26.697Z,8.17
2022-09-22T08:27:30.482Z,8.90
2022-09-22T08:32:36.114Z,7.07
2022-09-22T08:37:42.329Z,12.17
2022-09-22T08:42:45.607Z,11.23
2022-09-22T08:48:10.312Z,11.20
2022-09-22T08:53:18.010Z,10.47
2022-09-22T08:58:40.546Z,9.57
2022-09-22T09:03:58.759Z,10.90
2022-09-22T09:09:40.515Z,8.23
2022-09-22T09:15:10.429Z,10.07
2022-09-22T09:20:18.674Z,9.90
2022-09-22T09:25:34.915Z,7.50
2022-09-22T09:30:44.367Z,14.23
2022-09-22T09:35:52.231Z,7.13
2022-09-22T09:41:03.852Z,5.50
2022-09-22T09:46:17.097Z,7.40
2022-09-22T09:51:21.748Z,10.20
2022-09-22T09:56:28.210Z,7.43
2022-09-22T10:01:32.251Z,8.20
2022-09-22T10:06:35.211Z,7.27
2022-09-22T10:11:39.475Z,6.10
2022-09-22T10:16:52.803Z,8.20
2022-09-22T10:22:18.318Z,7.00
2022-09-22T10:27:27.716Z,7.37
2022-09-22T10:32:31.018Z,6.77
2022-09-22T10:37:34.418Z,5.23
2022-09-22T10:42:41.834Z,4.83
2022-09-22T10:47:57.509Z,3.10
2022-09-22T10:53:17.588Z,6.30
2022-09-22T10:58:54.223Z,3.30
2022-09-22T11:04:18.626Z,4.50
2022-09-22T11:09:46.790Z,3.03
2022-09-22T11:15:19.958Z,3.13
2022-09-22T11:20:34.330Z,4.60
2022-09-22T11:25:54.366Z,3.53
2022-09-22T11:30:59.207Z,4.13
2022-09-22T11:36:24.424Z,4.43
2022-09-22T11:41:31.958Z,4.10
2022-09-22T11:46:52.254Z,4.20
2022-09-22T11:52:17.289Z,3.47
2022-09-22T11:57:24.868Z,2.53
2022-09-22T12:02:35.752Z,2.63
2022-09-22T12:07:47.125Z,2.00
2022-09-22T12:12:51.866Z,6.03
2022-09-22T12:18:02.622Z,3.13
2022-09-22T12:23:31.891Z,1.83
2022-09-22T12:28:41.219Z,2.30
2022-09-22T12:33:51.217Z,4.23
2022-09-22T12:38:54.184Z,2.80
2022-09-22T12:44:09.248Z,2.63
2022-09-22T12:49:17.844Z,2.40
2022-09-22T12:54:39.658Z,3.50
2022-09-22T13:00:07.499Z,7.03
2022-09-22T13:05:34.954Z,3.43
2022-09-22T13:11:03.977Z,1.80
2022-09-22T13:16:37.155Z,1.90
2022-09-22T13:21:41.883Z,2.73
2022-09-22T13:26:44.820Z,2.47
2022-09-22T13:31:51.162Z,1.50
2022-09-22T13:37:00.289Z,1.80
2022-09-22T13:42:07.623Z,1.30
2022-09-22T13:47:17.135Z,1.70
2022-09-22T13:52:24.782Z,1.80
2022-09-22T13:57:31.151Z,1.60
2022-09-22T14:02:34.509Z,2.10
2022-09-22T14:07:49.876Z,1.73
2022-09-22T14:13:02.407Z,2.50
2022-09-22T14:18:11.525Z,3.07
2022-09-22T14:23:23.951Z,1.63
2022-09-22T14:28:30.125Z,1.97
2022-09-22T14:33:34.640Z,1.77
2022-09-22T14:38:45.878Z,2.07
2022-09-22T14:43:53.007Z,10.23
2022-09-22T14:48:55.956Z,4.30
2022-09-22T14:54:05.710Z,2.93
2022-09-22T14:59:24.156Z,2.33
2022-09-22T15:04:31.124Z,1.50
2022-09-22T15:09:40.400Z,2.67
2022-09-22T15:14:44.455Z,2.60
2022-09-22T15:19:51.177Z,1.70
2022-09-22T15:24:55.820Z,2.10
2022-09-22T15:29:58.743Z,2.57
2022-09-22T15:35:01.924Z,1.70
2022-09-22T15:40:16.640Z,3.10
2022-09-22T15:45:21.681Z,3.83
2022-09-22T15:50:28.955Z,1.60
2022-09-22T15:55:34.494Z,2.70
2022-09-22T16:00:38.999Z,1.50
2022-09-22T16:05:42.314Z,2.73
2022-09-22T16:10:46.678Z,2.20
2022-09-22T16:15:50.407Z,3.43
2022-09-22T16:20:53.737Z,2.03
2022-09-22T16:25:58.106Z,2.00
2022-09-22T16:31:03.126Z,2.23
2022-09-22T16:36:06.778Z,2.77
2022-09-22T16:41:20.206Z,3.80
2022-09-22T16:46:30.492Z,2.47
2022-09-22T16:51:35.601Z,3.53
2022-09-22T16:56:40.268Z,2.60
2022-09-22T17:01:44.050Z,12.00
2022-09-22T17:06:47.962Z,4.63
2022-09-22T17:11:52.671Z,3.50
2022-09-22T17:16:57.414Z,3.77
2022-09-22T17:22:00.441Z,9.60
2022-09-22T17:27:05.565Z,8.43
2022-09-22T17:32:09.122Z,9.43
2022-09-22T17:37:14.236Z,8.93
2022-09-22T17:42:20.137Z,6.37
2022-09-22T17:47:54.837Z,3.90
2022-09-22T17:53:15.278Z,3.47
2022-09-22T17:58:19.563Z,4.83
2022-09-22T18:03:22.516Z,6.50
2022-09-22T18:08:25.768Z,8.27
2022-09-22T18:13:30.125Z,4.03
2022-09-22T18:18:33.074Z,3.07
2022-09-22T18:23:36.926Z,23.47
2022-09-22T18:28:41.653Z,32.37
2022-09-22T18:33:45.163Z,22.77
2022-09-22T18:38:48.097Z,72.40
2022-09-22T18:43:54.402Z,50.37
2022-09-22T18:49:04.796Z,39.33
2022-09-22T18:54:08.735Z,15.30
2022-09-22T18:59:15.187Z,11.60
2022-09-22T19:04:21.083Z,8.00
2022-09-22T19:09:24.039Z,16.30
2022-09-22T19:14:36.309Z,18.27
2022-09-22T19:19:42.204Z,9.93
2022-09-22T19:24:46.096Z,15.50
2022-09-22T19:29:51.848Z,15.13
2022-09-22T19:34:55.713Z,12.30
2022-09-22T19:39:58.672Z,12.47
2022-09-22T19:45:03.155Z,10.87
2022-09-22T19:50:08.037Z,9.40
2022-09-22T19:55:12.141Z,11.80
2022-09-22T20:00:25.654Z,12.70
2022-09-22T20:05:31.571Z,12.93
2022-09-22T20:10:35.081Z,16.83
2022-09-22T20:15:39.974Z,14.33
2022-09-22T20:20:44.410Z,11.80
2022-09-22T20:25:47.725Z,13.77
2022-09-22T20:30:52.037Z,11.30
2022-09-22T20:35:56.228Z,11.00
2022-09-22T20:41:02.697Z,9.83
2022-09-22T20:46:07.619Z,8.43
2022-09-22T20:51:10.547Z,11.07
2022-09-22T20:56:13.958Z,10.40
2022-09-22T21:01:18.707Z,8.47
2022-09-22T21:06:22.572Z,10.00
2022-09-22T21:11:26.577Z,8.23
2022-09-22T21:16:31.367Z,8.70
2022-09-22T21:21:37.769Z,8.90
2022-09-22T21:26:40.701Z,11.23
2022-09-22T21:31:46.349Z,10.00
2022-09-22T21:36:49.248Z,12.27
2022-09-22T21:41:52.152Z,9.27
2022-09-22T21:46:56.424Z,9.83
2022-09-22T21:52:00.720Z,12.13
2022-09-22T21:57:03.671Z,10.27
2022-09-22T22:02:07.905Z,12.33
2022-09-22T22:07:11.959Z,11.20
2022-09-22T22:12:14.880Z,9.30
2022-09-22T22:17:19.721Z,9.57
2022-09-22T22:22:22.640Z,9.43
2022-09-22T22:27:25.631Z,8.47
2022-09-22T22:32:29.901Z,10.50
2022-09-22T22:37:32.902Z,7.33
2022-09-22T22:42:35.809Z,7.80
2022-09-22T22:47:40.064Z,6.70
2022-09-22T22:52:44.128Z,10.40
2022-09-22T22:57:47.024Z,7.10
2022-09-22T23:02:52.494Z,8.67
2022-09-22T23:07:55.440Z,7.50
2022-09-22T23:12:59.749Z,7.20
2022-09-22T23:18:04.042Z,5.33
2022-09-22T23:23:06.929Z,6.03
2022-09-22T23:28:09.859Z,6.47
2022-09-22T23:33:14.475Z,8.07
2022-09-22T23:38:17.583Z,7.90
2022-09-22T23:43:20.595Z,5.90
2022-09-22T23:48:26.489Z,6.20
2022-09-22T23:53:31.506Z,6.47
2022-09-22T23:58:35.230Z,7.10
